»·PEaware :: N22AB KSMO-KONT

N22AB :: KSMO-KONT

FLIGHT INFORMATION

Flight Status: Arrived
Operator: Privately registered:
United States
More flights under this callsign
Pilot: Andrew B. (6114)
Aircraft: CESSNA 172 SKYHAWK
(C172)
More flights by this aircraft type
Origin: KSMO Santa Monica Mun
United States
Destination: KONT Ontario Intl
United States
More flights between these airports :: More routes between these airports
Route: +SMO SMO125 V64 SLI V8 PDZ
File this flight plan on PilotEdge
Remarks: Smop9
Altitude:
(Current/Filed)
5,000ft
Speed:
(Current/Filed)
160kts
Departed: 17-Nov-20 10:50 PM
Arrived: 17-Nov-20 11:31 PM
Distance/Time
Traveled:
43nm/0:41
Distance/Time
To Go:
Arrived

Flight Plot

Page will automatically refresh every two minutes.

Flight plan parsing failed; only flown route is shown


Map Options




Map Legend


Flown Route
Filed Route
Departure Airport
Arrival Airport
Navaid (VOR, NDB)
Fix

Horizontal Profiles

Position Reports

Time Latitude Longitude Heading Altitude Ground
Speed
17-Nov-20 22:21 34.020077 -118.447705 133 161ft 0kts
17-Nov-20 22:22 34.020076 -118.447705 132 161ft 0kts
17-Nov-20 22:23 34.020077 -118.447705 132 161ft 0kts
17-Nov-20 22:24 34.020077 -118.447705 132 161ft 0kts
17-Nov-20 22:25 34.020077 -118.447705 132 161ft 0kts
17-Nov-20 22:26 34.020077 -118.447705 132 161ft 0kts
17-Nov-20 22:27 34.020077 -118.447705 132 161ft 0kts
17-Nov-20 22:27 34.020077 -118.447705 132 161ft 0kts
17-Nov-20 22:28 34.020077 -118.447705 132 161ft 0kts
17-Nov-20 22:30 34.020077 -118.447705 132 161ft 0kts
17-Nov-20 22:30 34.020077 -118.447705 132 161ft 0kts
17-Nov-20 22:31 34.020077 -118.447705 132 161ft 0kts
17-Nov-20 22:32 34.020077 -118.447705 132 161ft 0kts
17-Nov-20 22:33 34.020077 -118.447705 132 161ft 0kts
17-Nov-20 22:34 34.020077 -118.447705 132 161ft 0kts
17-Nov-20 22:35 34.020077 -118.447705 132 161ft 0kts
17-Nov-20 22:36 34.020077 -118.447705 132 161ft 0kts
17-Nov-20 22:37 34.020077 -118.447705 132 161ft 0kts
17-Nov-20 22:38 34.020077 -118.447705 132 161ft 0kts
17-Nov-20 22:39 34.020077 -118.447705 132 161ft 0kts
17-Nov-20 22:40 34.020077 -118.447705 132 161ft 0kts
17-Nov-20 22:41 34.020077 -118.447705 132 161ft 0kts
17-Nov-20 22:42 34.020077 -118.447705 132 161ft 0kts
17-Nov-20 22:43 34.020077 -118.447705 132 161ft 0kts
17-Nov-20 22:44 34.020077 -118.447705 132 161ft 0kts
17-Nov-20 22:45 34.020077 -118.447705 132 161ft 0kts
17-Nov-20 22:46 34.020077 -118.447705 132 161ft 0kts
17-Nov-20 22:47 34.019931 -118.447634 186 161ft 7kts
17-Nov-20 22:48 34.019562 -118.447710 146 160ft 0kts
17-Nov-20 22:49 34.014496 -118.452996 226 225ft 82kts
17-Nov-20 22:50 33.999351 -118.473573 228 1274ft 83kts
17-Nov-20 22:51 33.985993 -118.495393 261 2225ft 87kts
17-Nov-20 22:52 33.990218 -118.522347 350 3031ft 93kts
17-Nov-20 22:53 34.001001 -118.498293 76 3831ft 94kts
17-Nov-20 22:54 34.008970 -118.467980 68 4569ft 95kts
17-Nov-20 22:55 33.994621 -118.440670 131 5007ft 116kts
17-Nov-20 22:56 33.970520 -118.411410 134 5003ft 125kts
17-Nov-20 22:57 33.945087 -118.382286 138 5003ft 125kts
17-Nov-20 22:58 33.917598 -118.356408 129 5004ft 126kts
17-Nov-20 22:59 33.891371 -118.328269 144 5002ft 126kts
17-Nov-20 23:00 33.862888 -118.303226 141 5003ft 126kts
17-Nov-20 23:01 33.835300 -118.276824 139 5002ft 128kts
17-Nov-20 23:02 33.807614 -118.249698 139 5002ft 128kts
17-Nov-20 23:03 33.780185 -118.222164 134 5004ft 128kts
17-Nov-20 23:04 33.777133 -118.180075 86 5003ft 128kts
17-Nov-20 23:05 33.779204 -118.137056 85 5002ft 128kts
17-Nov-20 23:06 33.781614 -118.094215 85 5002ft 128kts
17-Nov-20 23:07 33.784902 -118.051740 74 5005ft 128kts
17-Nov-20 23:08 33.792546 -118.020473 71 5003ft 128kts
17-Nov-20 23:09 33.803157 -117.979471 71 5002ft 128kts
17-Nov-20 23:10 33.911879 -117.547035 67 4995ft 127kts
17-Nov-20 23:11 33.928010 -117.507054 58 5003ft 128kts
17-Nov-20 23:12 33.950686 -117.473934 57 4988ft 129kts
17-Nov-20 23:13 33.940257 -117.434236 118 5003ft 128kts
17-Nov-20 23:14 33.924343 -117.394978 103 5003ft 128kts
17-Nov-20 23:15 33.925778 -117.352611 44 5009ft 127kts
17-Nov-20 23:16 33.960005 -117.342451 0 5002ft 128kts
17-Nov-20 23:17 33.996082 -117.342044 359 5001ft 128kts
17-Nov-20 23:18 34.032019 -117.341944 359 5001ft 128kts
17-Nov-20 23:19 34.053352 -117.365423 276 4524ft 87kts
17-Nov-20 23:20 34.054437 -117.397826 269 3996ft 95kts
17-Nov-20 23:21 34.054586 -117.432165 269 3422ft 96kts
17-Nov-20 23:22 34.054623 -117.445602 269 3198ft 96kts
17-Nov-20 23:23 34.054623 -117.445602 269 3198ft 96kts
17-Nov-20 23:24 34.054623 -117.445602 269 3198ft 96kts
17-Nov-20 23:25 34.054740 -117.468368 274 2772ft 64kts
17-Nov-20 23:26 34.054672 -117.492068 275 2426ft 82kts
17-Nov-20 23:27 34.054791 -117.519515 269 1958ft 80kts
17-Nov-20 23:28 34.055252 -117.546399 264 1564ft 79kts
17-Nov-20 23:29 34.055311 -117.572791 246 1075ft 72kts
17-Nov-20 23:30 34.054926 -117.592820 265 919ft 37kts

Navigation Log

Ident Type
Flight plan parsing failed, navigation log unavailable